createdAt,value
2023-01-26T00:01:22.500Z,31.87
2023-01-26T00:03:52.521Z,32.63
2023-01-26T00:06:24.017Z,35.33
2023-01-26T00:08:54.684Z,39.10
2023-01-26T00:11:27.034Z,41.47
2023-01-26T00:13:57.296Z,41.93
2023-01-26T00:16:26.611Z,44.07
2023-01-26T00:18:55.709Z,40.83
2023-01-26T00:21:27.431Z,42.60
2023-01-26T00:23:57.517Z,40.43
2023-01-26T00:26:28.709Z,46.47
2023-01-26T00:28:57.632Z,44.67
2023-01-26T00:31:28.991Z,43.27
2023-01-26T00:33:58.724Z,42.23
2023-01-26T00:36:29.320Z,44.03
2023-01-26T00:38:58.783Z,40.87
2023-01-26T00:41:44.964Z,82.63
2023-01-26T00:44:14.052Z,136.30
2023-01-26T00:46:43.032Z,64.33
2023-01-26T00:49:12.304Z,49.67
2023-01-26T00:51:42.696Z,46.13
2023-01-26T00:54:11.733Z,51.27
2023-01-26T00:56:41.245Z,52.63
2023-01-26T00:59:10.348Z,54.93
2023-01-26T01:01:39.473Z,70.80
2023-01-26T01:04:08.733Z,177.87
2023-01-26T01:06:38.073Z,157.47
2023-01-26T01:09:08.768Z,114.20
2023-01-26T01:11:37.905Z,56.37
2023-01-26T01:14:06.934Z,46.43
2023-01-26T01:16:35.883Z,46.37
2023-01-26T01:19:08.310Z,40.63
2023-01-26T01:21:38.084Z,43.77
2023-01-26T01:24:09.697Z,40.87
2023-01-26T01:26:39.762Z,40.47
2023-01-26T01:29:09.530Z,41.00
2023-01-26T01:31:39.503Z,40.77
2023-01-26T01:34:08.611Z,42.77
2023-01-26T01:36:37.633Z,43.93
2023-01-26T01:39:08.004Z,43.87
2023-01-26T01:41:37.147Z,53.10
2023-01-26T01:44:17.858Z,40.87
2023-01-26T01:46:52.964Z,42.43
2023-01-26T01:49:25.219Z,43.47
2023-01-26T01:51:58.994Z,44.57
2023-01-26T01:54:34.578Z,43.30
2023-01-26T01:57:15.981Z,44.80
2023-01-26T01:59:49.577Z,42.80
2023-01-26T02:02:19.351Z,43.27
2023-01-26T02:04:49.400Z,47.00
2023-01-26T02:07:18.377Z,43.27
2023-01-26T02:10:06.588Z,44.23
2023-01-26T02:12:37.360Z,41.93
2023-01-26T02:15:07.060Z,41.67
2023-01-26T02:17:36.891Z,42.27
2023-01-26T02:20:13.133Z,42.23
2023-01-26T02:22:49.408Z,42.40
2023-01-26T02:25:33.617Z,48.00
2023-01-26T02:28:04.257Z,45.80
2023-01-26T02:30:33.783Z,43.33
2023-01-26T02:33:03.298Z,42.73
2023-01-26T02:35:32.494Z,41.10
2023-01-26T02:38:02.817Z,45.17
2023-01-26T02:40:39.459Z,44.83
2023-01-26T02:43:08.853Z,43.13
2023-01-26T02:45:41.814Z,44.60
2023-01-26T02:48:10.941Z,43.30
2023-01-26T02:50:38.789Z,42.73
2023-01-26T02:53:07.935Z,42.13
2023-01-26T02:55:36.233Z,52.20
2023-01-26T02:58:07.906Z,49.93
2023-01-26T03:00:40.978Z,81.43
2023-01-26T03:03:16.384Z,49.80
2023-01-26T03:05:45.659Z,37.70
2023-01-26T03:08:15.048Z,35.07
2023-01-26T03:10:44.546Z,34.63
2023-01-26T03:13:13.746Z,31.93
2023-01-26T03:15:48.215Z,38.23
2023-01-26T03:18:35.821Z,35.43
2023-01-26T03:21:29.708Z,30.83
2023-01-26T03:24:16.029Z,27.67
2023-01-26T03:27:03.226Z,30.93
2023-01-26T03:29:33.670Z,43.27
2023-01-26T03:32:05.375Z,37.90
2023-01-26T03:34:35.371Z,67.13
2023-01-26T03:37:06.619Z,64.13
2023-01-26T03:40:09.298Z,51.00
2023-01-26T03:43:14.349Z,32.00
2023-01-26T03:46:00.978Z,35.43
2023-01-26T03:48:51.374Z,31.53
2023-01-26T03:51:37.604Z,34.73
2023-01-26T03:54:23.921Z,37.33
2023-01-26T03:57:11.525Z,37.33
2023-01-26T03:59:40.853Z,71.07
2023-01-26T04:02:31.712Z,59.23
2023-01-26T04:05:21.676Z,48.20
2023-01-26T04:08:12.907Z,38.30
2023-01-26T04:10:42.080Z,34.07
2023-01-26T04:13:28.190Z,33.83
2023-01-26T04:16:20.593Z,35.33
2023-01-26T04:19:06.695Z,39.20
2023-01-26T04:21:37.859Z,34.37
2023-01-26T04:24:17.124Z,30.10
2023-01-26T04:26:47.933Z,35.67
2023-01-26T04:29:23.993Z,34.67
2023-01-26T04:31:53.467Z,36.77
2023-01-26T04:34:24.067Z,36.57
2023-01-26T04:36:55.044Z,37.97
2023-01-26T04:39:27.095Z,37.87
2023-01-26T04:41:58.537Z,54.07
2023-01-26T04:44:27.641Z,55.27
2023-01-26T04:46:56.637Z,55.13
2023-01-26T04:49:25.576Z,107.03
2023-01-26T04:51:55.988Z,139.30
2023-01-26T04:54:25.472Z,115.33
2023-01-26T04:56:55.428Z,69.53
2023-01-26T04:59:24.374Z,42.70
2023-01-26T05:01:57.172Z,41.50
2023-01-26T05:04:26.303Z,43.30
2023-01-26T05:06:57.453Z,36.70
2023-01-26T05:09:28.209Z,41.87
2023-01-26T05:12:31.370Z,37.67
2023-01-26T05:15:23.601Z,36.37
2023-01-26T05:18:16.044Z,39.67
2023-01-26T05:21:12.961Z,45.07
2023-01-26T05:23:48.060Z,45.53
2023-01-26T05:26:41.700Z,56.23
2023-01-26T05:29:15.292Z,72.40
2023-01-26T05:31:44.555Z,55.30
2023-01-26T05:34:13.712Z,63.47
2023-01-26T05:36:42.742Z,50.97
2023-01-26T05:39:13.947Z,58.73
2023-01-26T05:41:42.998Z,73.33
2023-01-26T05:44:29.429Z,66.43
2023-01-26T05:47:04.413Z,82.73
2023-01-26T05:49:33.651Z,79.53
2023-01-26T05:52:02.956Z,93.50
2023-01-26T05:54:33.786Z,74.53
2023-01-26T05:57:02.879Z,52.93
2023-01-26T05:59:33.255Z,70.17
2023-01-26T06:02:02.790Z,79.03
2023-01-26T06:04:32.175Z,60.37
2023-01-26T06:07:02.404Z,103.13
2023-01-26T06:09:38.367Z,176.03
2023-01-26T06:12:25.797Z,145.20
2023-01-26T06:14:57.667Z,181.83
2023-01-26T06:17:34.947Z,90.70
2023-01-26T06:20:07.552Z,108.27
2023-01-26T06:22:37.490Z,129.60
2023-01-26T06:25:08.478Z,105.43
2023-01-26T06:27:42.516Z,86.90
2023-01-26T06:30:26.331Z,70.50
2023-01-26T06:33:00.380Z,116.43
2023-01-26T06:35:30.759Z,134.73
2023-01-26T06:38:03.308Z,140.03
2023-01-26T06:40:33.732Z,98.30
2023-01-26T06:43:21.363Z,83.00
2023-01-26T06:45:50.494Z,117.27
2023-01-26T06:48:20.736Z,89.87
2023-01-26T06:50:52.380Z,93.37
2023-01-26T06:53:31.213Z,114.47
2023-01-26T06:56:33.753Z,130.60
2023-01-26T06:59:38.564Z,76.40
2023-01-26T07:02:25.941Z,68.80
2023-01-26T07:05:13.400Z,62.87
2023-01-26T07:07:42.317Z,52.83
2023-01-26T07:10:12.928Z,67.20
2023-01-26T07:12:45.395Z,64.03
2023-01-26T07:15:15.135Z,60.97
2023-01-26T07:17:44.145Z,63.10
2023-01-26T07:20:13.737Z,78.97
2023-01-26T07:22:42.799Z,105.20
2023-01-26T07:25:11.920Z,126.57
2023-01-26T07:27:40.850Z,119.67
2023-01-26T07:30:14.489Z,133.07
2023-01-26T07:32:43.716Z,146.47
2023-01-26T07:35:12.693Z,136.70
2023-01-26T07:37:41.654Z,129.77
2023-01-26T07:40:12.302Z,113.57
2023-01-26T07:43:00.617Z,104.83
2023-01-26T07:45:54.233Z,101.33
2023-01-26T07:48:25.200Z,109.07
2023-01-26T07:50:54.372Z,84.00
2023-01-26T07:53:23.289Z,130.20
2023-01-26T07:55:52.314Z,132.77
2023-01-26T07:58:21.584Z,132.80
2023-01-26T08:00:51.965Z,151.67
2023-01-26T08:03:21.019Z,88.50
2023-01-26T08:05:50.039Z,94.23
2023-01-26T08:08:19.573Z,53.10
2023-01-26T08:10:48.532Z,56.57
2023-01-26T08:13:29.942Z,73.83
2023-01-26T08:16:07.427Z,86.73
2023-01-26T08:18:36.658Z,110.73
2023-01-26T08:21:06.072Z,143.07
2023-01-26T08:23:35.139Z,113.10
2023-01-26T08:26:04.941Z,137.23
2023-01-26T08:28:34.509Z,144.40
2023-01-26T08:31:08.496Z,129.73
2023-01-26T08:33:37.637Z,96.10
2023-01-26T08:36:08.817Z,77.63
2023-01-26T08:38:37.873Z,80.37
2023-01-26T08:41:07.645Z,76.37
2023-01-26T08:43:36.693Z,75.23
2023-01-26T08:46:07.693Z,95.40
2023-01-26T08:48:37.561Z,93.57
2023-01-26T08:51:08.714Z,140.43
2023-01-26T08:53:39.048Z,159.33
2023-01-26T08:56:10.204Z,164.73
2023-01-26T08:58:39.556Z,112.57
2023-01-26T09:01:12.971Z,149.93
2023-01-26T09:03:42.113Z,149.43
2023-01-26T09:06:13.830Z,118.30
2023-01-26T09:08:43.719Z,155.13
2023-01-26T09:11:13.659Z,162.17
2023-01-26T09:13:42.808Z,115.97
2023-01-26T09:16:19.844Z,139.77
2023-01-26T09:18:51.591Z,109.90
2023-01-26T09:21:21.001Z,128.73
2023-01-26T09:23:50.052Z,99.57
2023-01-26T09:26:19.051Z,93.43
2023-01-26T09:28:52.278Z,118.77
2023-01-26T09:31:22.882Z,141.07
2023-01-26T09:33:52.825Z,116.53
2023-01-26T09:36:21.852Z,60.17
2023-01-26T09:38:51.483Z,72.17
2023-01-26T09:41:36.313Z,68.47
2023-01-26T09:44:09.555Z,86.50
2023-01-26T09:46:56.959Z,103.93
2023-01-26T09:49:31.608Z,107.03
2023-01-26T09:52:06.795Z,46.67
2023-01-26T09:54:40.609Z,113.30
2023-01-26T09:57:15.109Z,83.40
2023-01-26T09:59:49.322Z,91.17
2023-01-26T10:02:32.746Z,55.37
2023-01-26T10:05:06.252Z,62.70
2023-01-26T10:07:35.552Z,55.03
2023-01-26T10:10:06.045Z,47.13
2023-01-26T10:12:37.909Z,62.57
2023-01-26T10:15:11.908Z,52.50
2023-01-26T10:17:44.463Z,165.30
2023-01-26T10:20:26.126Z,131.23
2023-01-26T10:22:58.110Z,102.73
2023-01-26T10:25:47.710Z,83.33
2023-01-26T10:28:19.003Z,36.93
2023-01-26T10:30:51.504Z,44.20
2023-01-26T10:33:28.912Z,48.70
2023-01-26T10:35:58.037Z,98.70
2023-01-26T10:38:45.096Z,44.77
2023-01-26T10:41:30.330Z,152.03
2023-01-26T10:44:02.777Z,125.77
2023-01-26T10:46:34.657Z,103.67
2023-01-26T10:49:16.317Z,143.63
2023-01-26T10:51:46.515Z,111.70
2023-01-26T10:54:21.124Z,91.63
2023-01-26T10:56:53.431Z,60.33
2023-01-26T10:59:30.051Z,89.00
2023-01-26T11:02:01.459Z,113.70
2023-01-26T11:04:32.269Z,81.80
2023-01-26T11:07:25.621Z,46.50
2023-01-26T11:09:55.179Z,54.40
2023-01-26T11:12:27.291Z,50.07
2023-01-26T11:15:04.373Z,79.87
2023-01-26T11:17:58.738Z,47.73
2023-01-26T11:20:48.515Z,82.80
2023-01-26T11:23:26.095Z,44.40
2023-01-26T11:26:14.098Z,72.00
2023-01-26T11:28:55.131Z,62.33
2023-01-26T11:31:34.060Z,52.87
2023-01-26T11:34:14.140Z,74.57
2023-01-26T11:36:54.124Z,53.67
2023-01-26T11:39:30.200Z,72.33
2023-01-26T11:42:11.625Z,119.80
2023-01-26T11:45:08.172Z,112.83
2023-01-26T11:47:50.992Z,100.43
2023-01-26T11:50:35.796Z,115.13
2023-01-26T11:53:31.031Z,117.97
2023-01-26T11:56:21.027Z,100.50
2023-01-26T11:58:56.526Z,107.20
2023-01-26T12:01:31.171Z,74.10
2023-01-26T12:04:00.270Z,96.33
2023-01-26T12:06:38.141Z,101.10
2023-01-26T12:09:19.181Z,108.67
2023-01-26T12:11:54.572Z,130.80
2023-01-26T12:14:29.089Z,71.10
2023-01-26T12:17:18.371Z,113.83
2023-01-26T12:19:54.263Z,80.80
2023-01-26T12:22:31.221Z,45.27
2023-01-26T12:25:19.028Z,114.50
2023-01-26T12:27:56.438Z,108.33
2023-01-26T12:30:42.241Z,71.20
2023-01-26T12:33:12.780Z,75.63
2023-01-26T12:36:01.811Z,78.10
2023-01-26T12:38:44.914Z,93.33
2023-01-26T12:41:20.577Z,80.27
2023-01-26T12:44:02.008Z,91.83
2023-01-26T12:46:33.937Z,103.37
2023-01-26T12:49:08.806Z,128.67
2023-01-26T12:51:42.669Z,99.87
2023-01-26T12:54:19.551Z,89.97
2023-01-26T12:56:54.876Z,72.47
2023-01-26T12:59:46.379Z,129.33
2023-01-26T13:02:30.550Z,76.63
2023-01-26T13:05:28.135Z,112.93
2023-01-26T13:07:57.195Z,161.17
2023-01-26T13:10:45.905Z,111.07
2023-01-26T13:13:34.282Z,69.70
2023-01-26T13:16:34.354Z,48.47
2023-01-26T13:19:04.466Z,77.20
2023-01-26T13:21:45.639Z,121.17
2023-01-26T13:24:44.878Z,54.40
2023-01-26T13:27:30.687Z,119.90
2023-01-26T13:30:01.774Z,54.87
2023-01-26T13:33:05.849Z,48.63
2023-01-26T13:35:36.977Z,71.53
2023-01-26T13:38:15.724Z,59.03
2023-01-26T13:40:48.276Z,123.90
2023-01-26T13:43:27.097Z,69.17
2023-01-26T13:46:11.373Z,55.47
2023-01-26T13:48:47.463Z,62.97
2023-01-26T13:51:19.916Z,48.67
2023-01-26T13:53:58.624Z,44.20
2023-01-26T13:56:31.206Z,47.57
2023-01-26T13:59:20.922Z,38.07
2023-01-26T14:01:53.105Z,41.70
2023-01-26T14:04:23.822Z,45.07
2023-01-26T14:06:57.897Z,37.90
2023-01-26T14:09:49.137Z,38.10
2023-01-26T14:12:23.921Z,58.13
2023-01-26T14:14:56.000Z,36.77
2023-01-26T14:17:31.314Z,40.27
2023-01-26T14:20:03.806Z,40.13
2023-01-26T14:22:33.064Z,40.30
2023-01-26T14:25:01.953Z,97.93
2023-01-26T14:27:38.321Z,79.17
2023-01-26T14:30:23.184Z,37.63
2023-01-26T14:32:57.588Z,46.53
2023-01-26T14:35:28.414Z,122.13
2023-01-26T14:38:07.948Z,103.33
2023-01-26T14:40:37.107Z,60.33
2023-01-26T14:43:06.218Z,117.10
2023-01-26T14:45:35.930Z,75.10
2023-01-26T14:48:10.608Z,94.70
2023-01-26T14:50:41.504Z,63.00
2023-01-26T14:53:19.737Z,184.60
2023-01-26T14:55:52.132Z,146.90
2023-01-26T14:58:24.614Z,110.60
2023-01-26T15:01:21.204Z,144.90
2023-01-26T15:03:57.881Z,202.53
2023-01-26T15:06:29.757Z,120.47
2023-01-26T15:09:01.953Z,134.97
2023-01-26T15:11:53.655Z,142.43
2023-01-26T15:14:36.545Z,137.47
2023-01-26T15:17:06.338Z,137.03
2023-01-26T15:19:44.136Z,154.80
2023-01-26T15:22:23.327Z,133.07
2023-01-26T15:25:03.068Z,163.83
2023-01-26T15:27:38.865Z,136.43
2023-01-26T15:30:09.228Z,102.97
2023-01-26T15:32:42.062Z,79.73
2023-01-26T15:35:24.936Z,59.03
2023-01-26T15:38:03.061Z,126.87
2023-01-26T15:40:32.315Z,61.00
2023-01-26T15:43:13.261Z,99.27
2023-01-26T15:45:43.946Z,88.47
2023-01-26T15:48:13.144Z,73.13
2023-01-26T15:50:43.547Z,64.00
2023-01-26T15:53:15.389Z,81.77
2023-01-26T15:55:45.558Z,57.07
2023-01-26T15:58:14.691Z,56.33
2023-01-26T16:00:43.785Z,71.10
2023-01-26T16:03:16.876Z,61.07
2023-01-26T16:05:48.879Z,77.07
2023-01-26T16:08:18.414Z,51.07
2023-01-26T16:10:48.246Z,45.67
2023-01-26T16:13:20.914Z,49.60
2023-01-26T16:15:51.925Z,54.83
2023-01-26T16:18:21.402Z,67.83
2023-01-26T16:20:52.378Z,63.97
2023-01-26T16:23:23.635Z,62.70
2023-01-26T16:25:53.272Z,49.77
2023-01-26T16:28:22.868Z,72.63
2023-01-26T16:30:52.308Z,68.60
2023-01-26T16:33:22.399Z,42.07
2023-01-26T16:35:52.913Z,48.70
2023-01-26T16:38:22.086Z,49.33
2023-01-26T16:40:51.618Z,57.97
2023-01-26T16:43:24.179Z,53.13
2023-01-26T16:45:54.054Z,53.50
2023-01-26T16:48:24.248Z,61.43
2023-01-26T16:50:55.824Z,66.57
2023-01-26T16:53:27.742Z,35.97
2023-01-26T16:55:56.904Z,47.83
2023-01-26T16:58:26.796Z,52.73
2023-01-26T17:00:56.485Z,40.87
2023-01-26T17:03:25.869Z,44.63
2023-01-26T17:05:57.426Z,41.17
2023-01-26T17:08:26.571Z,64.73
2023-01-26T17:11:02.388Z,47.90
2023-01-26T17:13:32.744Z,51.00
2023-01-26T17:16:01.822Z,36.47
2023-01-26T17:18:33.625Z,39.20
2023-01-26T17:21:07.735Z,42.23
2023-01-26T17:23:39.044Z,54.10
2023-01-26T17:26:08.244Z,56.50
2023-01-26T17:28:37.105Z,50.50
2023-01-26T17:31:11.149Z,53.77
2023-01-26T17:33:40.649Z,104.30
2023-01-26T17:36:11.967Z,69.37
2023-01-26T17:38:40.958Z,98.20
2023-01-26T17:41:10.766Z,109.70
2023-01-26T17:43:39.802Z,72.83
2023-01-26T17:46:10.359Z,80.00
2023-01-26T17:48:39.644Z,48.73
2023-01-26T17:51:11.211Z,36.97
2023-01-26T17:53:40.577Z,38.90
2023-01-26T17:56:11.153Z,31.30
2023-01-26T17:58:40.641Z,33.03
2023-01-26T18:01:11.367Z,33.93
2023-01-26T18:03:43.394Z,54.70
2023-01-26T18:06:32.478Z,50.57
2023-01-26T18:09:01.519Z,32.20
2023-01-26T18:11:30.512Z,28.97
2023-01-26T18:13:59.749Z,32.30
2023-01-26T18:16:28.770Z,33.27
2023-01-26T18:18:59.492Z,29.20
2023-01-26T18:21:30.432Z,35.70
2023-01-26T18:24:03.537Z,31.37
2023-01-26T18:26:35.084Z,35.57
2023-01-26T18:29:06.239Z,33.20
2023-01-26T18:31:37.298Z,31.43
2023-01-26T18:34:25.070Z,29.93
2023-01-26T18:36:54.055Z,29.17
2023-01-26T18:39:24.576Z,38.20
2023-01-26T18:41:53.591Z,28.93
2023-01-26T18:44:22.840Z,26.33
2023-01-26T18:46:51.853Z,27.17
2023-01-26T18:49:21.015Z,79.83
2023-01-26T18:51:50.892Z,70.97
2023-01-26T18:54:20.308Z,41.67
2023-01-26T18:56:50.715Z,43.57
2023-01-26T18:59:20.100Z,37.60
2023-01-26T19:01:49.429Z,55.13
2023-01-26T19:04:18.581Z,52.90
2023-01-26T19:06:48.183Z,146.20
2023-01-26T19:09:17.204Z,45.57
2023-01-26T19:11:46.164Z,92.53
2023-01-26T19:14:16.769Z,37.00
2023-01-26T19:16:47.865Z,132.90
2023-01-26T19:19:17.143Z,79.10
2023-01-26T19:21:46.102Z,40.90
2023-01-26T19:24:15.623Z,54.43
2023-01-26T19:26:44.617Z,68.97
2023-01-26T19:29:13.843Z,49.57
2023-01-26T19:31:44.332Z,47.40
2023-01-26T19:34:17.099Z,33.23
2023-01-26T19:36:47.185Z,91.27
2023-01-26T19:39:16.240Z,33.30
2023-01-26T19:41:46.470Z,78.90
2023-01-26T19:44:15.427Z,73.37
2023-01-26T19:46:45.826Z,36.87
2023-01-26T19:49:16.327Z,39.33
2023-01-26T19:51:45.314Z,40.07
2023-01-26T19:54:14.900Z,37.70
2023-01-26T19:56:43.831Z,112.83
2023-01-26T19:59:13.536Z,109.63
2023-01-26T20:01:42.466Z,54.53
2023-01-26T20:04:16.149Z,59.43
2023-01-26T20:06:45.176Z,68.47
2023-01-26T20:09:14.125Z,93.00
2023-01-26T20:11:43.123Z,101.43
2023-01-26T20:14:12.769Z,98.53
2023-01-26T20:16:42.108Z,64.53
2023-01-26T20:19:14.535Z,57.50
2023-01-26T20:21:43.654Z,86.53
2023-01-26T20:24:17.140Z,77.00
2023-01-26T20:26:46.399Z,37.20
2023-01-26T20:29:17.277Z,55.80
2023-01-26T20:31:47.233Z,88.77
2023-01-26T20:34:18.191Z,48.37
2023-01-26T20:36:47.311Z,63.40
2023-01-26T20:39:24.884Z,54.33
2023-01-26T20:41:55.411Z,73.40
2023-01-26T20:44:24.524Z,41.97
2023-01-26T20:46:53.476Z,54.33
2023-01-26T20:49:23.931Z,100.70
2023-01-26T20:51:52.948Z,47.63
2023-01-26T20:54:22.971Z,41.10
2023-01-26T20:56:52.037Z,34.03
2023-01-26T20:59:22.335Z,124.33
2023-01-26T21:01:51.775Z,145.30
2023-01-26T21:04:20.801Z,63.23
2023-01-26T21:06:51.348Z,49.07
2023-01-26T21:09:21.391Z,48.10
2023-01-26T21:11:50.370Z,165.83
2023-01-26T21:14:20.523Z,55.40
2023-01-26T21:16:50.068Z,126.73
2023-01-26T21:19:22.030Z,190.67
2023-01-26T21:21:52.908Z,82.97
2023-01-26T21:24:23.473Z,145.13
2023-01-26T21:26:52.743Z,100.33
2023-01-26T21:29:22.112Z,91.53
2023-01-26T21:31:52.449Z,109.63
2023-01-26T21:34:23.242Z,96.13
2023-01-26T21:36:54.147Z,91.47
2023-01-26T21:39:23.232Z,91.47
2023-01-26T21:41:58.221Z,59.83
2023-01-26T21:44:28.711Z,118.97
2023-01-26T21:46:59.632Z,130.23
2023-01-26T21:49:29.943Z,105.40
2023-01-26T21:52:18.013Z,73.30
2023-01-26T21:54:47.624Z,101.30
2023-01-26T21:57:34.738Z,34.77
2023-01-26T22:00:04.025Z,138.13
2023-01-26T22:02:33.562Z,88.23
2023-01-26T22:05:02.536Z,90.63
2023-01-26T22:07:33.679Z,113.73
2023-01-26T22:10:02.806Z,118.60
2023-01-26T22:12:32.058Z,85.63
2023-01-26T22:15:01.379Z,110.80
2023-01-26T22:17:30.296Z,72.50
2023-01-26T22:19:59.740Z,95.07
2023-01-26T22:22:28.750Z,92.20
2023-01-26T22:24:59.914Z,79.10
2023-01-26T22:27:29.365Z,144.83
2023-01-26T22:29:58.274Z,56.30
2023-01-26T22:32:27.862Z,103.07
2023-01-26T22:34:56.857Z,90.10
2023-01-26T22:37:25.974Z,59.60
2023-01-26T22:39:54.909Z,46.50
2023-01-26T22:42:25.601Z,104.83
2023-01-26T22:44:54.633Z,129.87
2023-01-26T22:47:23.578Z,78.63
2023-01-26T22:49:52.593Z,119.23
2023-01-26T22:52:21.460Z,97.40
2023-01-26T22:54:50.364Z,51.63
2023-01-26T22:57:19.617Z,59.57
2023-01-26T22:59:50.028Z,106.97
2023-01-26T23:02:19.047Z,123.50
2023-01-26T23:04:48.092Z,47.73
2023-01-26T23:07:16.944Z,82.73
2023-01-26T23:09:45.883Z,34.27
2023-01-26T23:12:14.768Z,57.63
2023-01-26T23:14:43.660Z,157.73
2023-01-26T23:17:14.196Z,77.67
2023-01-26T23:19:43.106Z,64.43
2023-01-26T23:22:12.008Z,169.23
2023-01-26T23:24:40.933Z,47.93
2023-01-26T23:27:09.857Z,32.60
2023-01-26T23:29:38.718Z,28.07
2023-01-26T23:32:08.062Z,82.20
2023-01-26T23:34:38.443Z,167.13
2023-01-26T23:37:07.553Z,121.73
2023-01-26T23:39:36.456Z,46.20
2023-01-26T23:42:05.457Z,186.43
2023-01-26T23:44:34.499Z,95.77
2023-01-26T23:47:03.489Z,107.10
2023-01-26T23:49:32.477Z,85.93
2023-01-26T23:52:02.902Z,50.87
2023-01-26T23:54:31.745Z,58.70
2023-01-26T23:57:00.771Z,24.00
2023-01-26T23:59:30.042Z,21.07
